Terminal Aerodrome Forecast
Issued by NWS

Home | Current Version | Previous Version | Text Only | Print | Product List | Glossary On
Versions: 1 2 3 4 5 6 7 8 9 10 11 12 13 14 15 16 17 18 19 20
107
FTAK31 PAJN 291124
TAFAYA
TAF
PAYA 291124Z 2912/3012 VRB03KT P6SM VCSH SCT025 BKN035 OVC070
      TEMPO 2912/2915 BKN025
     FM291500 10005KT P6SM VCSH BKN025 OVC060
      TEMPO 2915/2918 -RA
     FM292100 11008KT P6SM -RA BKN025 OVC050
     FM300300 10011KT 5SM -RA BR BKN020 OVC030
      AMD LTD TO CLD VIS AND WIND=

USA.gov is the U.S. government's official web portal to all federal, state and local government web resources and services.